sensor_id;sensor_type;location;lat;lon;timestamp;P1;durP1;ratioP1;P2;durP2;ratioP2
321;SDS011;148;51.480;7.208;2024-03-02T00:01:04;9.63;;;3.00;;
321;SDS011;148;51.480;7.208;2024-03-02T00:03:29;2.67;;;2.50;;
321;SDS011;148;51.480;7.208;2024-03-02T00:05:55;3.60;;;2.50;;
321;SDS011;148;51.480;7.208;2024-03-02T00:08:24;3.77;;;2.73;;
321;SDS011;148;51.480;7.208;2024-03-02T00:10:57;5.10;;;2.80;;
321;SDS011;148;51.480;7.208;2024-03-02T00:13:23;5.67;;;2.97;;
321;SDS011;148;51.480;7.208;2024-03-02T00:15:56;3.77;;;2.87;;
321;SDS011;148;51.480;7.208;2024-03-02T00:18:33;4.77;;;2.97;;
321;SDS011;148;51.480;7.208;2024-03-02T00:21:00;4.33;;;2.50;;
321;SDS011;148;51.480;7.208;2024-03-02T00:23:29;4.60;;;2.80;;
321;SDS011;148;51.480;7.208;2024-03-02T00:25:56;8.10;;;2.50;;
321;SDS011;148;51.480;7.208;2024-03-02T00:33:22;4.53;;;3.40;;
321;SDS011;148;51.480;7.208;2024-03-02T00:35:48;6.07;;;3.33;;
321;SDS011;148;51.480;7.208;2024-03-02T09:04:59;7.80;;;2.83;;
321;SDS011;148;51.480;7.208;2024-03-02T09:07:25;5.13;;;2.90;;
321;SDS011;148;51.480;7.208;2024-03-02T09:09:51;2.73;;;2.47;;
321;SDS011;148;51.480;7.208;2024-03-02T09:12:17;4.13;;;3.00;;
321;SDS011;148;51.480;7.208;2024-03-02T09:14:43;9.37;;;3.30;;
321;SDS011;148;51.480;7.208;2024-03-02T09:17:09;3.80;;;2.30;;
321;SDS011;148;51.480;7.208;2024-03-02T09:19:36;5.07;;;2.77;;
321;SDS011;148;51.480;7.208;2024-03-02T09:22:02;5.77;;;2.80;;
321;SDS011;148;51.480;7.208;2024-03-02T09:24:30;3.57;;;2.60;;
321;SDS011;148;51.480;7.208;2024-03-02T09:26:58;4.83;;;2.63;;
321;SDS011;148;51.480;7.208;2024-03-02T09:29:24;4.97;;;2.97;;
321;SDS011;148;51.480;7.208;2024-03-02T09:31:49;3.03;;;2.53;;
321;SDS011;148;51.480;7.208;2024-03-02T09:34:15;4.60;;;2.27;;
321;SDS011;148;51.480;7.208;2024-03-02T09:36:41;7.07;;;2.73;;
321;SDS011;148;51.480;7.208;2024-03-02T09:39:07;5.03;;;2.63;;
321;SDS011;148;51.480;7.208;2024-03-02T09:41:34;4.60;;;2.30;;
321;SDS011;148;51.480;7.208;2024-03-02T09:44:04;2.57;;;2.07;;
321;SDS011;148;51.480;7.208;2024-03-02T09:46:33;6.50;;;2.20;;
321;SDS011;148;51.480;7.208;2024-03-02T09:49:00;4.20;;;2.50;;
321;SDS011;148;51.480;7.208;2024-03-02T09:51:26;3.20;;;2.23;;
321;SDS011;148;51.480;7.208;2024-03-02T09:53:51;2.50;;;2.30;;
321;SDS011;148;51.480;7.208;2024-03-02T09:56:18;4.07;;;2.37;;
321;SDS011;148;51.480;7.208;2024-03-02T09:58:45;3.20;;;2.60;;
321;SDS011;148;51.480;7.208;2024-03-02T10:01:11;2.70;;;2.10;;
321;SDS011;148;51.480;7.208;2024-03-02T10:03:37;3.47;;;2.17;;
321;SDS011;148;51.480;7.208;2024-03-02T10:08:47;3.70;;;2.23;;
321;SDS011;148;51.480;7.208;2024-03-02T10:11:25;2.33;;;2.17;;
321;SDS011;148;51.480;7.208;2024-03-02T10:14:08;11.67;;;2.73;;
321;SDS011;148;51.480;7.208;2024-03-02T10:16:39;3.87;;;2.07;;
321;SDS011;148;51.480;7.208;2024-03-02T10:19:19;2.63;;;1.97;;
321;SDS011;148;51.480;7.208;2024-03-02T10:21:46;2.57;;;2.10;;
321;SDS011;148;51.480;7.208;2024-03-02T10:24:15;6.73;;;2.00;;
321;SDS011;148;51.480;7.208;2024-03-02T10:26:44;4.50;;;2.10;;
321;SDS011;148;51.480;7.208;2024-03-02T10:29:10;5.47;;;2.20;;
321;SDS011;148;51.480;7.208;2024-03-02T10:31:37;3.87;;;2.87;;
321;SDS011;148;51.480;7.208;2024-03-02T10:34:04;2.77;;;2.27;;
321;SDS011;148;51.480;7.208;2024-03-02T10:36:31;3.40;;;2.00;;
321;SDS011;148;51.480;7.208;2024-03-02T10:38:58;4.67;;;2.10;;
321;SDS011;148;51.480;7.208;2024-03-02T10:41:24;3.30;;;2.33;;
321;SDS011;148;51.480;7.208;2024-03-02T10:43:55;2.90;;;2.13;;
321;SDS011;148;51.480;7.208;2024-03-02T10:46:27;2.23;;;1.90;;
321;SDS011;148;51.480;7.208;2024-03-02T10:48:55;2.60;;;2.43;;
321;SDS011;148;51.480;7.208;2024-03-02T10:51:23;2.80;;;2.03;;
321;SDS011;148;51.480;7.208;2024-03-02T10:53:51;4.70;;;2.17;;
321;SDS011;148;51.480;7.208;2024-03-02T10:56:21;3.03;;;2.13;;
321;SDS011;148;51.480;7.208;2024-03-02T10:58:50;11.50;;;2.83;;
321;SDS011;148;51.480;7.208;2024-03-02T11:01:24;5.23;;;2.50;;
321;SDS011;148;51.480;7.208;2024-03-02T11:03:50;3.03;;;2.07;;
321;SDS011;148;51.480;7.208;2024-03-02T11:06:17;4.53;;;2.37;;
321;SDS011;148;51.480;7.208;2024-03-02T11:08:43;4.40;;;2.17;;
321;SDS011;148;51.480;7.208;2024-03-02T11:11:15;5.17;;;1.93;;
321;SDS011;148;51.480;7.208;2024-03-02T11:13:47;4.50;;;2.30;;
321;SDS011;148;51.480;7.208;2024-03-02T11:16:26;4.37;;;3.10;;
321;SDS011;148;51.480;7.208;2024-03-02T11:19:00;5.67;;;2.57;;
321;SDS011;148;51.480;7.208;2024-03-02T11:21:36;3.47;;;2.40;;
321;SDS011;148;51.480;7.208;2024-03-02T11:26:50;3.10;;;1.90;;
321;SDS011;148;51.480;7.208;2024-03-02T11:32:01;4.13;;;2.33;;
321;SDS011;148;51.480;7.208;2024-03-02T11:36:59;2.60;;;1.93;;
321;SDS011;148;51.480;7.208;2024-03-02T11:39:27;3.50;;;2.50;;
321;SDS011;148;51.480;7.208;2024-03-02T11:41:53;2.70;;;2.27;;
321;SDS011;148;51.480;7.208;2024-03-02T11:44:24;7.40;;;2.37;;
321;SDS011;148;51.480;7.208;2024-03-02T11:47:00;2.63;;;1.90;;
321;SDS011;148;51.480;7.208;2024-03-02T11:52:19;2.30;;;1.90;;
321;SDS011;148;51.480;7.208;2024-03-02T11:54:47;4.90;;;2.20;;
321;SDS011;148;51.480;7.208;2024-03-02T11:57:17;3.63;;;2.23;;
321;SDS011;148;51.480;7.208;2024-03-02T11:59:44;3.17;;;2.40;;
321;SDS011;148;51.480;7.208;2024-03-02T12:02:17;3.70;;;2.27;;
321;SDS011;148;51.480;7.208;2024-03-02T12:04:47;4.70;;;1.90;;
321;SDS011;148;51.480;7.208;2024-03-02T12:07:18;2.80;;;1.90;;
321;SDS011;148;51.480;7.208;2024-03-02T12:09:46;4.87;;;1.90;;
321;SDS011;148;51.480;7.208;2024-03-02T12:12:12;5.30;;;2.40;;
321;SDS011;148;51.480;7.208;2024-03-02T12:14:49;6.47;;;2.10;;
321;SDS011;148;51.480;7.208;2024-03-02T12:17:21;3.10;;;2.13;;
321;SDS011;148;51.480;7.208;2024-03-02T12:19:48;3.63;;;1.73;;
321;SDS011;148;51.480;7.208;2024-03-02T12:22:14;2.10;;;1.77;;
321;SDS011;148;51.480;7.208;2024-03-02T12:24:40;3.00;;;2.10;;
321;SDS011;148;51.480;7.208;2024-03-02T12:27:06;2.80;;;2.10;;
321;SDS011;148;51.480;7.208;2024-03-02T12:29:32;2.37;;;1.80;;
321;SDS011;148;51.480;7.208;2024-03-02T12:31:59;6.40;;;2.00;;
321;SDS011;148;51.480;7.208;2024-03-02T12:34:27;2.90;;;2.00;;
321;SDS011;148;51.480;7.208;2024-03-02T12:36:53;2.87;;;2.43;;
321;SDS011;148;51.480;7.208;2024-03-02T12:39:19;2.00;;;1.90;;
321;SDS011;148;51.480;7.208;2024-03-02T12:41:45;3.23;;;2.30;;
321;SDS011;148;51.480;7.208;2024-03-02T12:44:11;3.20;;;2.00;;
321;SDS011;148;51.480;7.208;2024-03-02T12:46:37;3.93;;;1.90;;
321;SDS011;148;51.480;7.208;2024-03-02T12:49:10;1.90;;;1.70;;
321;SDS011;148;51.480;7.208;2024-03-02T12:51:37;2.77;;;2.00;;
321;SDS011;148;51.480;7.208;2024-03-02T12:54:08;4.67;;;1.80;;
321;SDS011;148;51.480;7.208;2024-03-02T12:56:40;2.73;;;2.10;;
321;SDS011;148;51.480;7.208;2024-03-02T12:59:21;2.30;;;1.90;;
321;SDS011;148;51.480;7.208;2024-03-02T13:01:54;3.20;;;1.90;;
321;SDS011;148;51.480;7.208;2024-03-02T13:06:51;1.87;;;1.77;;
321;SDS011;148;51.480;7.208;2024-03-02T13:09:17;4.53;;;1.83;;
321;SDS011;148;51.480;7.208;2024-03-02T13:11:43;2.13;;;1.87;;
321;SDS011;148;51.480;7.208;2024-03-02T13:14:10;2.83;;;1.83;;
321;SDS011;148;51.480;7.208;2024-03-02T13:16:39;5.70;;;2.00;;
321;SDS011;148;51.480;7.208;2024-03-02T13:19:11;7.90;;;3.13;;
321;SDS011;148;51.480;7.208;2024-03-02T13:21:37;1.70;;;1.50;;
321;SDS011;148;51.480;7.208;2024-03-02T13:24:03;1.80;;;1.70;;
321;SDS011;148;51.480;7.208;2024-03-02T13:26:29;2.90;;;1.90;;
321;SDS011;148;51.480;7.208;2024-03-02T13:28:55;2.37;;;2.20;;
321;SDS011;148;51.480;7.208;2024-03-02T13:31:21;2.63;;;2.30;;
321;SDS011;148;51.480;7.208;2024-03-02T13:33:47;3.90;;;2.40;;
321;SDS011;148;51.480;7.208;2024-03-02T13:36:13;4.70;;;2.23;;
321;SDS011;148;51.480;7.208;2024-03-02T13:38:38;2.70;;;1.90;;
321;SDS011;148;51.480;7.208;2024-03-02T13:41:04;3.00;;;1.67;;
321;SDS011;148;51.480;7.208;2024-03-02T13:43:30;2.20;;;1.70;;
321;SDS011;148;51.480;7.208;2024-03-02T13:46:00;2.57;;;1.73;;
321;SDS011;148;51.480;7.208;2024-03-02T13:48:28;2.30;;;1.90;;
321;SDS011;148;51.480;7.208;2024-03-02T13:50:55;2.90;;;1.70;;
321;SDS011;148;51.480;7.208;2024-03-02T13:53:21;1.93;;;1.83;;
321;SDS011;148;51.480;7.208;2024-03-02T13:55:46;2.07;;;1.70;;
321;SDS011;148;51.480;7.208;2024-03-02T13:58:12;3.30;;;2.50;;
321;SDS011;148;51.480;7.208;2024-03-02T14:00:38;4.20;;;1.70;;
321;SDS011;148;51.480;7.208;2024-03-02T14:03:09;4.87;;;2.07;;
321;SDS011;148;51.480;7.208;2024-03-02T14:05:35;4.50;;;2.60;;
321;SDS011;148;51.480;7.208;2024-03-02T14:08:01;6.43;;;4.03;;
321;SDS011;148;51.480;7.208;2024-03-02T14:10:27;4.00;;;2.90;;
321;SDS011;148;51.480;7.208;2024-03-02T14:12:53;6.10;;;2.00;;
321;SDS011;148;51.480;7.208;2024-03-02T14:15:20;7.27;;;3.87;;
321;SDS011;148;51.480;7.208;2024-03-02T14:17:46;14.37;;;6.03;;
321;SDS011;148;51.480;7.208;2024-03-02T14:20:11;14.77;;;4.10;;
321;SDS011;148;51.480;7.208;2024-03-02T14:22:38;3.73;;;1.97;;
321;SDS011;148;51.480;7.208;2024-03-02T14:25:04;2.03;;;1.80;;
321;SDS011;148;51.480;7.208;2024-03-02T14:27:30;5.30;;;3.00;;
321;SDS011;148;51.480;7.208;2024-03-02T14:29:55;7.20;;;3.43;;
321;SDS011;148;51.480;7.208;2024-03-02T14:32:21;8.20;;;3.63;;
321;SDS011;148;51.480;7.208;2024-03-02T14:34:47;4.93;;;2.70;;
321;SDS011;148;51.480;7.208;2024-03-02T14:37:13;5.63;;;3.57;;
321;SDS011;148;51.480;7.208;2024-03-02T14:39:42;6.20;;;3.80;;
321;SDS011;148;51.480;7.208;2024-03-02T14:42:08;4.77;;;2.77;;
321;SDS011;148;51.480;7.208;2024-03-02T14:44:33;3.60;;;2.77;;
321;SDS011;148;51.480;7.208;2024-03-02T14:47:00;4.80;;;2.60;;
321;SDS011;148;51.480;7.208;2024-03-02T14:49:29;4.37;;;3.27;;
321;SDS011;148;51.480;7.208;2024-03-02T14:51:55;4.60;;;2.50;;
321;SDS011;148;51.480;7.208;2024-03-02T14:54:21;4.63;;;2.47;;
321;SDS011;148;51.480;7.208;2024-03-02T14:56:47;6.13;;;2.73;;
321;SDS011;148;51.480;7.208;2024-03-02T14:59:14;4.10;;;2.73;;
321;SDS011;148;51.480;7.208;2024-03-02T15:01:40;3.30;;;2.33;;
321;SDS011;148;51.480;7.208;2024-03-02T15:04:05;3.47;;;2.20;;
321;SDS011;148;51.480;7.208;2024-03-02T15:06:31;5.60;;;2.47;;
321;SDS011;148;51.480;7.208;2024-03-02T15:08:57;3.40;;;2.43;;
321;SDS011;148;51.480;7.208;2024-03-02T15:11:23;3.80;;;2.40;;
321;SDS011;148;51.480;7.208;2024-03-02T15:13:50;3.00;;;2.37;;
321;SDS011;148;51.480;7.208;2024-03-02T15:16:16;4.50;;;2.20;;
321;SDS011;148;51.480;7.208;2024-03-02T15:18:43;9.40;;;4.90;;
321;SDS011;148;51.480;7.208;2024-03-02T15:21:10;4.03;;;2.47;;
321;SDS011;148;51.480;7.208;2024-03-02T15:23:36;3.23;;;2.20;;
321;SDS011;148;51.480;7.208;2024-03-02T15:26:01;2.43;;;2.03;;
321;SDS011;148;51.480;7.208;2024-03-02T15:28:27;2.63;;;2.13;;
321;SDS011;148;51.480;7.208;2024-03-02T15:30:53;2.60;;;2.30;;
321;SDS011;148;51.480;7.208;2024-03-02T15:33:19;3.67;;;2.10;;
321;SDS011;148;51.480;7.208;2024-03-02T15:35:45;2.90;;;2.23;;
321;SDS011;148;51.480;7.208;2024-03-02T15:38:11;2.33;;;2.20;;
321;SDS011;148;51.480;7.208;2024-03-02T15:40:40;2.20;;;2.00;;
321;SDS011;148;51.480;7.208;2024-03-02T15:43:05;2.40;;;2.23;;
321;SDS011;148;51.480;7.208;2024-03-02T15:45:31;3.90;;;2.10;;
321;SDS011;148;51.480;7.208;2024-03-02T15:47:59;2.80;;;2.30;;
321;SDS011;148;51.480;7.208;2024-03-02T15:50:25;2.60;;;2.00;;
321;SDS011;148;51.480;7.208;2024-03-02T15:52:51;2.20;;;2.03;;
321;SDS011;148;51.480;7.208;2024-03-02T15:55:17;4.23;;;2.20;;
321;SDS011;148;51.480;7.208;2024-03-02T15:57:43;2.30;;;2.10;;
321;SDS011;148;51.480;7.208;2024-03-02T16:00:09;4.50;;;2.20;;
321;SDS011;148;51.480;7.208;2024-03-02T16:02:35;2.93;;;2.30;;
321;SDS011;148;51.480;7.208;2024-03-02T16:05:03;5.20;;;3.03;;
321;SDS011;148;51.480;7.208;2024-03-02T16:07:29;5.40;;;2.30;;
321;SDS011;148;51.480;7.208;2024-03-02T16:09:55;6.60;;;3.77;;
321;SDS011;148;51.480;7.208;2024-03-02T16:12:21;3.70;;;2.53;;
321;SDS011;148;51.480;7.208;2024-03-02T16:14:47;3.40;;;2.47;;
321;SDS011;148;51.480;7.208;2024-03-02T16:17:12;3.60;;;2.63;;
321;SDS011;148;51.480;7.208;2024-03-02T16:19:38;4.50;;;2.20;;
321;SDS011;148;51.480;7.208;2024-03-02T16:22:05;2.47;;;2.23;;
321;SDS011;148;51.480;7.208;2024-03-02T16:24:33;3.03;;;2.27;;
321;SDS011;148;51.480;7.208;2024-03-02T16:26:58;3.10;;;2.03;;
321;SDS011;148;51.480;7.208;2024-03-02T16:29:24;3.40;;;2.30;;
321;SDS011;148;51.480;7.208;2024-03-02T16:31:50;4.10;;;2.50;;
321;SDS011;148;51.480;7.208;2024-03-02T16:34:15;3.13;;;2.23;;
321;SDS011;148;51.480;7.208;2024-03-02T16:36:41;3.00;;;2.17;;
321;SDS011;148;51.480;7.208;2024-03-02T16:39:07;3.13;;;2.40;;
321;SDS011;148;51.480;7.208;2024-03-02T16:41:36;2.80;;;2.43;;
321;SDS011;148;51.480;7.208;2024-03-02T16:44:07;3.23;;;2.47;;
321;SDS011;148;51.480;7.208;2024-03-02T16:46:34;3.37;;;2.20;;
321;SDS011;148;51.480;7.208;2024-03-02T16:49:03;3.07;;;2.07;;
321;SDS011;148;51.480;7.208;2024-03-02T16:51:29;4.17;;;2.60;;
321;SDS011;148;51.480;7.208;2024-03-02T16:53:54;3.10;;;2.77;;
321;SDS011;148;51.480;7.208;2024-03-02T16:56:20;4.90;;;2.93;;
321;SDS011;148;51.480;7.208;2024-03-02T16:58:45;5.23;;;2.90;;
321;SDS011;148;51.480;7.208;2024-03-02T17:01:11;4.87;;;2.97;;
321;SDS011;148;51.480;7.208;2024-03-02T17:03:37;4.33;;;2.63;;
321;SDS011;148;51.480;7.208;2024-03-02T17:06:02;3.00;;;2.13;;
321;SDS011;148;51.480;7.208;2024-03-02T17:08:28;8.60;;;2.63;;
321;SDS011;148;51.480;7.208;2024-03-02T17:10:54;2.90;;;2.13;;
321;SDS011;148;51.480;7.208;2024-03-02T17:13:19;5.57;;;2.40;;
321;SDS011;148;51.480;7.208;2024-03-02T17:15:45;2.50;;;2.13;;
321;SDS011;148;51.480;7.208;2024-03-02T17:18:11;3.33;;;2.37;;
321;SDS011;148;51.480;7.208;2024-03-02T17:20:36;4.33;;;3.10;;
321;SDS011;148;51.480;7.208;2024-03-02T17:23:02;7.80;;;3.70;;
321;SDS011;148;51.480;7.208;2024-03-02T17:25:28;4.47;;;3.10;;
321;SDS011;148;51.480;7.208;2024-03-02T17:27:56;5.67;;;4.37;;
321;SDS011;148;51.480;7.208;2024-03-02T17:30:43;7.50;;;3.80;;
321;SDS011;148;51.480;7.208;2024-03-02T17:33:08;17.13;;;7.93;;
321;SDS011;148;51.480;7.208;2024-03-02T17:35:34;11.03;;;6.87;;
321;SDS011;148;51.480;7.208;2024-03-02T17:38:00;6.73;;;3.30;;
321;SDS011;148;51.480;7.208;2024-03-02T17:40:25;7.90;;;3.80;;
321;SDS011;148;51.480;7.208;2024-03-02T17:42:51;8.40;;;3.73;;
321;SDS011;148;51.480;7.208;2024-03-02T17:45:17;5.63;;;2.33;;
321;SDS011;148;51.480;7.208;2024-03-02T17:47:43;8.80;;;4.40;;
321;SDS011;148;51.480;7.208;2024-03-02T17:50:08;7.17;;;4.20;;
321;SDS011;148;51.480;7.208;2024-03-02T17:52:37;4.37;;;2.83;;
321;SDS011;148;51.480;7.208;2024-03-02T17:55:02;6.13;;;2.70;;
321;SDS011;148;51.480;7.208;2024-03-02T17:57:28;4.63;;;3.20;;
321;SDS011;148;51.480;7.208;2024-03-02T17:59:54;6.33;;;3.17;;
321;SDS011;148;51.480;7.208;2024-03-02T18:02:20;4.80;;;3.20;;
321;SDS011;148;51.480;7.208;2024-03-02T18:04:45;8.17;;;4.23;;
321;SDS011;148;51.480;7.208;2024-03-02T18:07:11;7.07;;;3.73;;
321;SDS011;148;51.480;7.208;2024-03-02T18:09:37;5.50;;;3.23;;
321;SDS011;148;51.480;7.208;2024-03-02T18:12:02;4.50;;;2.37;;
321;SDS011;148;51.480;7.208;2024-03-02T18:14:29;2.87;;;2.30;;
321;SDS011;148;51.480;7.208;2024-03-02T18:16:56;3.67;;;1.93;;
321;SDS011;148;51.480;7.208;2024-03-02T18:19:22;3.07;;;2.50;;
321;SDS011;148;51.480;7.208;2024-03-02T18:21:48;3.00;;;2.67;;
321;SDS011;148;51.480;7.208;2024-03-02T18:24:14;5.27;;;3.03;;
321;SDS011;148;51.480;7.208;2024-03-02T18:26:40;5.10;;;3.00;;
321;SDS011;148;51.480;7.208;2024-03-02T18:29:06;4.70;;;2.90;;
321;SDS011;148;51.480;7.208;2024-03-02T18:31:33;3.60;;;2.50;;
321;SDS011;148;51.480;7.208;2024-03-02T18:33:59;5.83;;;3.60;;
321;SDS011;148;51.480;7.208;2024-03-02T18:36:25;5.53;;;4.33;;
321;SDS011;148;51.480;7.208;2024-03-02T18:38:50;7.10;;;3.27;;
321;SDS011;148;51.480;7.208;2024-03-02T18:41:16;5.17;;;2.87;;
321;SDS011;148;51.480;7.208;2024-03-02T18:43:42;5.10;;;2.80;;
321;SDS011;148;51.480;7.208;2024-03-02T18:46:09;6.90;;;3.40;;
321;SDS011;148;51.480;7.208;2024-03-02T18:48:35;5.30;;;3.47;;
321;SDS011;148;51.480;7.208;2024-03-02T18:51:07;4.47;;;3.27;;
321;SDS011;148;51.480;7.208;2024-03-02T18:53:34;9.10;;;2.90;;
321;SDS011;148;51.480;7.208;2024-03-02T18:56:01;4.30;;;2.77;;
321;SDS011;148;51.480;7.208;2024-03-02T18:58:29;6.10;;;3.10;;
321;SDS011;148;51.480;7.208;2024-03-02T19:00:55;5.00;;;3.30;;
321;SDS011;148;51.480;7.208;2024-03-02T19:03:20;3.30;;;2.70;;
321;SDS011;148;51.480;7.208;2024-03-02T19:05:46;5.77;;;3.40;;
321;SDS011;148;51.480;7.208;2024-03-02T19:08:12;5.80;;;3.30;;
321;SDS011;148;51.480;7.208;2024-03-02T19:10:45;5.47;;;3.30;;
321;SDS011;148;51.480;7.208;2024-03-02T19:13:11;4.40;;;2.60;;
321;SDS011;148;51.480;7.208;2024-03-02T19:15:39;3.60;;;3.07;;
321;SDS011;148;51.480;7.208;2024-03-02T19:18:05;6.60;;;3.40;;
321;SDS011;148;51.480;7.208;2024-03-02T19:20:30;8.20;;;5.10;;
321;SDS011;148;51.480;7.208;2024-03-02T19:22:56;10.27;;;4.57;;
321;SDS011;148;51.480;7.208;2024-03-02T19:25:23;6.60;;;4.10;;
321;SDS011;148;51.480;7.208;2024-03-02T19:27:48;6.43;;;3.37;;
321;SDS011;148;51.480;7.208;2024-03-02T19:30:14;11.80;;;4.87;;
321;SDS011;148;51.480;7.208;2024-03-02T19:32:40;9.00;;;5.30;;
321;SDS011;148;51.480;7.208;2024-03-02T19:35:05;8.60;;;4.50;;
321;SDS011;148;51.480;7.208;2024-03-02T19:37:32;11.40;;;4.40;;
321;SDS011;148;51.480;7.208;2024-03-02T19:39:57;8.73;;;5.00;;
321;SDS011;148;51.480;7.208;2024-03-02T19:42:23;9.70;;;4.30;;
321;SDS011;148;51.480;7.208;2024-03-02T19:44:49;5.60;;;3.63;;
321;SDS011;148;51.480;7.208;2024-03-02T19:47:16;8.50;;;4.10;;
321;SDS011;148;51.480;7.208;2024-03-02T19:49:44;8.60;;;4.53;;
321;SDS011;148;51.480;7.208;2024-03-02T19:52:10;10.87;;;5.03;;
321;SDS011;148;51.480;7.208;2024-03-02T19:54:36;8.40;;;4.63;;
321;SDS011;148;51.480;7.208;2024-03-02T19:57:02;8.50;;;4.90;;
321;SDS011;148;51.480;7.208;2024-03-02T19:59:28;7.10;;;3.57;;
321;SDS011;148;51.480;7.208;2024-03-02T20:01:54;4.23;;;2.80;;
321;SDS011;148;51.480;7.208;2024-03-02T20:04:20;4.40;;;3.00;;
321;SDS011;148;51.480;7.208;2024-03-02T20:06:49;11.67;;;3.67;;
321;SDS011;148;51.480;7.208;2024-03-02T20:09:16;9.90;;;4.43;;
321;SDS011;148;51.480;7.208;2024-03-02T20:11:42;8.17;;;4.40;;
321;SDS011;148;51.480;7.208;2024-03-02T20:14:10;8.47;;;4.37;;
321;SDS011;148;51.480;7.208;2024-03-02T20:16:36;4.97;;;3.70;;
321;SDS011;148;51.480;7.208;2024-03-02T20:19:05;5.90;;;4.10;;
321;SDS011;148;51.480;7.208;2024-03-02T20:21:31;7.30;;;4.00;;
321;SDS011;148;51.480;7.208;2024-03-02T20:23:56;7.87;;;3.83;;
321;SDS011;148;51.480;7.208;2024-03-02T20:26:22;7.43;;;4.37;;
321;SDS011;148;51.480;7.208;2024-03-02T20:28:54;8.80;;;4.77;;
321;SDS011;148;51.480;7.208;2024-03-02T20:31:20;11.37;;;5.70;;
321;SDS011;148;51.480;7.208;2024-03-02T20:33:45;8.57;;;4.40;;
321;SDS011;148;51.480;7.208;2024-03-02T20:36:14;8.10;;;4.57;;
321;SDS011;148;51.480;7.208;2024-03-02T20:38:40;9.40;;;4.43;;
321;SDS011;148;51.480;7.208;2024-03-02T20:41:19;12.60;;;5.03;;
321;SDS011;148;51.480;7.208;2024-03-02T20:43:45;9.13;;;4.60;;
321;SDS011;148;51.480;7.208;2024-03-02T20:46:12;8.63;;;4.93;;
321;SDS011;148;51.480;7.208;2024-03-02T20:48:41;7.07;;;4.40;;
321;SDS011;148;51.480;7.208;2024-03-02T20:51:07;9.70;;;4.60;;
321;SDS011;148;51.480;7.208;2024-03-02T20:53:33;8.40;;;5.20;;
321;SDS011;148;51.480;7.208;2024-03-02T20:55:59;6.90;;;4.10;;
321;SDS011;148;51.480;7.208;2024-03-02T20:58:25;5.90;;;4.00;;
321;SDS011;148;51.480;7.208;2024-03-02T21:00:50;9.50;;;4.73;;
321;SDS011;148;51.480;7.208;2024-03-02T21:03:28;8.13;;;4.73;;
321;SDS011;148;51.480;7.208;2024-03-02T21:05:54;14.00;;;5.67;;
321;SDS011;148;51.480;7.208;2024-03-02T21:08:20;9.20;;;4.30;;
321;SDS011;148;51.480;7.208;2024-03-02T21:10:45;7.60;;;4.40;;
321;SDS011;148;51.480;7.208;2024-03-02T21:13:11;8.50;;;4.10;;
321;SDS011;148;51.480;7.208;2024-03-02T21:15:37;6.10;;;3.40;;
321;SDS011;148;51.480;7.208;2024-03-02T21:18:03;7.33;;;4.10;;
321;SDS011;148;51.480;7.208;2024-03-02T21:20:28;6.47;;;4.30;;
321;SDS011;148;51.480;7.208;2024-03-02T21:22:55;6.40;;;4.60;;
321;SDS011;148;51.480;7.208;2024-03-02T21:25:22;6.90;;;4.20;;
321;SDS011;148;51.480;7.208;2024-03-02T21:27:47;7.40;;;4.40;;
321;SDS011;148;51.480;7.208;2024-03-02T21:30:13;7.90;;;3.97;;
321;SDS011;148;51.480;7.208;2024-03-02T21:32:41;8.23;;;5.00;;
321;SDS011;148;51.480;7.208;2024-03-02T21:35:07;13.03;;;5.80;;
321;SDS011;148;51.480;7.208;2024-03-02T21:37:33;8.50;;;4.77;;
321;SDS011;148;51.480;7.208;2024-03-02T21:39:59;6.30;;;4.47;;
321;SDS011;148;51.480;7.208;2024-03-02T21:42:24;7.60;;;4.50;;
321;SDS011;148;51.480;7.208;2024-03-02T21:44:50;6.67;;;4.40;;
321;SDS011;148;51.480;7.208;2024-03-02T21:47:16;6.40;;;4.13;;
321;SDS011;148;51.480;7.208;2024-03-02T21:49:42;7.93;;;4.57;;
321;SDS011;148;51.480;7.208;2024-03-02T21:52:08;9.60;;;5.07;;
321;SDS011;148;51.480;7.208;2024-03-02T21:54:34;7.43;;;4.50;;
321;SDS011;148;51.480;7.208;2024-03-02T21:57:00;10.87;;;5.47;;
321;SDS011;148;51.480;7.208;2024-03-02T21:59:27;9.20;;;4.90;;
321;SDS011;148;51.480;7.208;2024-03-02T22:01:58;8.03;;;4.70;;
321;SDS011;148;51.480;7.208;2024-03-02T22:04:23;7.00;;;4.60;;
321;SDS011;148;51.480;7.208;2024-03-02T22:06:49;8.50;;;4.70;;
321;SDS011;148;51.480;7.208;2024-03-02T22:09:15;12.37;;;5.80;;
321;SDS011;148;51.480;7.208;2024-03-02T22:11:40;10.53;;;5.00;;
321;SDS011;148;51.480;7.208;2024-03-02T22:14:09;10.17;;;5.10;;
321;SDS011;148;51.480;7.208;2024-03-02T22:16:34;8.70;;;5.17;;
321;SDS011;148;51.480;7.208;2024-03-02T22:19:00;10.27;;;5.43;;
321;SDS011;148;51.480;7.208;2024-03-02T22:21:26;7.70;;;5.03;;
321;SDS011;148;51.480;7.208;2024-03-02T22:23:51;8.53;;;5.00;;
321;SDS011;148;51.480;7.208;2024-03-02T22:26:17;10.47;;;5.23;;
321;SDS011;148;51.480;7.208;2024-03-02T22:28:43;10.43;;;5.10;;
321;SDS011;148;51.480;7.208;2024-03-02T22:31:09;12.00;;;5.07;;
321;SDS011;148;51.480;7.208;2024-03-02T22:33:35;6.30;;;4.53;;
321;SDS011;148;51.480;7.208;2024-03-02T22:36:02;8.87;;;5.03;;
321;SDS011;148;51.480;7.208;2024-03-02T22:38:27;9.53;;;5.13;;
321;SDS011;148;51.480;7.208;2024-03-02T22:40:53;17.27;;;7.50;;
321;SDS011;148;51.480;7.208;2024-03-02T22:43:18;25.07;;;11.00;;
321;SDS011;148;51.480;7.208;2024-03-02T22:45:44;13.10;;;6.67;;
321;SDS011;148;51.480;7.208;2024-03-02T22:48:10;13.20;;;6.27;;
321;SDS011;148;51.480;7.208;2024-03-02T22:50:37;9.83;;;5.07;;
321;SDS011;148;51.480;7.208;2024-03-02T22:53:02;10.43;;;5.47;;
321;SDS011;148;51.480;7.208;2024-03-02T22:55:28;12.20;;;6.10;;
321;SDS011;148;51.480;7.208;2024-03-02T22:57:54;11.17;;;6.67;;
321;SDS011;148;51.480;7.208;2024-03-02T23:00:21;15.50;;;7.43;;
321;SDS011;148;51.480;7.208;2024-03-02T23:02:58;18.40;;;7.13;;
321;SDS011;148;51.480;7.208;2024-03-02T23:05:25;10.77;;;5.80;;
321;SDS011;148;51.480;7.208;2024-03-02T23:07:51;11.23;;;5.43;;
321;SDS011;148;51.480;7.208;2024-03-02T23:10:16;11.33;;;5.13;;
321;SDS011;148;51.480;7.208;2024-03-02T23:12:42;8.90;;;5.10;;
321;SDS011;148;51.480;7.208;2024-03-02T23:15:11;9.07;;;4.93;;
321;SDS011;148;51.480;7.208;2024-03-02T23:17:36;10.33;;;4.80;;
321;SDS011;148;51.480;7.208;2024-03-02T23:20:02;7.87;;;4.50;;
321;SDS011;148;51.480;7.208;2024-03-02T23:22:28;6.53;;;4.70;;
321;SDS011;148;51.480;7.208;2024-03-02T23:24:53;8.63;;;5.10;;
321;SDS011;148;51.480;7.208;2024-03-02T23:27:19;7.83;;;4.70;;
321;SDS011;148;51.480;7.208;2024-03-02T23:29:45;9.90;;;5.03;;
321;SDS011;148;51.480;7.208;2024-03-02T23:32:10;8.67;;;5.10;;
321;SDS011;148;51.480;7.208;2024-03-02T23:34:36;7.20;;;4.47;;
321;SDS011;148;51.480;7.208;2024-03-02T23:37:03;80.93;;;42.40;;
321;SDS011;148;51.480;7.208;2024-03-02T23:39:29;75.80;;;41.23;;
321;SDS011;148;51.480;7.208;2024-03-02T23:42:11;19.20;;;11.13;;
321;SDS011;148;51.480;7.208;2024-03-02T23:44:37;10.60;;;5.73;;
321;SDS011;148;51.480;7.208;2024-03-02T23:47:03;9.33;;;4.33;;
321;SDS011;148;51.480;7.208;2024-03-02T23:49:29;10.00;;;5.70;;
321;SDS011;148;51.480;7.208;2024-03-02T23:51:54;6.50;;;4.40;;
321;SDS011;148;51.480;7.208;2024-03-02T23:54:20;8.53;;;4.90;;
321;SDS011;148;51.480;7.208;2024-03-02T23:56:48;7.53;;;4.40;;
321;SDS011;148;51.480;7.208;2024-03-02T23:59:13;6.57;;;4.13;;
